General Edward Lawrence Logan International Airport

KBOS · Massachusetts, Estados Unidos

História da METAR KBOS · General Edward Lawrence Logan International Airport

Abaixo você vê METARs dos últimos dias. Selecione um ano para navegar pelos METARs mais antigos, a partir do ano 2007.

29 de maio de 2024

Hora Código Clima Temp. Visibilidade Tecto Vento METAR/SPECI
10:54
V
22 °C 10 mi - 280° 280° 8 kt METAR KBOS 291454Z 28008KT 10SM FEW048 FEW065 22/11 A2988 RMK AO2 SLP118 T02220111 51015
09:54
V
22 °C 10 mi - 310° 310° 7 kt METAR KBOS 291354Z 31007KT 10SM FEW046 22/11 A2987 RMK AO2 SLP113 T02170106
08:54
V
21 °C 10 mi - 290° 290° 6 kt METAR KBOS 291254Z 29006KT 10SM FEW045 FEW090 21/12 A2986 RMK AO2 SLP110 T02060117
07:54
V
19 °C 10 mi - 310° 310° 5 kt METAR KBOS 291154Z 31005KT 10SM FEW070 19/11 A2984 RMK AO2 SLP102 T01940111 10194 20167 51013
06:54
V
18 °C 10 mi - 300° 300° 8 kt METAR KBOS 291054Z 30008KT 10SM FEW070 18/12 A2982 RMK AO2 SLP099 T01780122
05:54
V
17 °C 10 mi - 290° 290° 7 kt METAR KBOS 290954Z 29007KT 10SM FEW070 17/12 A2981 RMK AO2 SLP095 T01720122
04:54
V
17 °C 10 mi - 280° 280° 9 kt METAR KBOS 290854Z 28009KT 10SM FEW070 FEW250 17/12 A2980 RMK AO2 SLP090 T01720122 53013
03:54
V
18 °C 10 mi - 280° 280° 11 kt METAR KBOS 290754Z 28011KT 10SM CLR 18/12 A2978 RMK AO2 SLP083 T01830122
02:54
V
18 °C 10 mi - 270° 270° 10 kt METAR KBOS 290654Z 27010KT 10SM FEW100 18/12 A2976 RMK AO2 SLP078 T01830122
00:54
V
20 °C 10 mi - 270° 270° 11 kt METAR KBOS 290454Z 27011KT 10SM CLR 20/12 A2975 RMK AO2 SLP073 T02000117 402890189

28 de maio de 2024

Hora Código Clima Temp. Visibilidade Tecto Vento METAR/SPECI
23:54
V
21 °C 10 mi - 260° 260° 10 kt METAR KBOS 290354Z 26010KT 10SM CLR 21/12 A2974 RMK AO2 SLP071 T02060117
22:54
V
22 °C 10 mi - 250° 250° 13 kt METAR KBOS 290254Z 25013KT 10SM CLR 22/12 A2973 RMK AO2 SLP068 T02170122 51026
21:54
V
23 °C 10 mi - 260° 260° 12 - 20 kt METAR KBOS 290154Z 26012G20KT 10SM FEW070 FEW250 23/12 A2972 RMK AO2 SLP064 T02280122
20:54
V
24 °C 10 mi - 270° 270° 13 - 24 kt METAR KBOS 290054Z 27013G24KT 10SM FEW070 FEW250 24/12 A2970 RMK AO2 SLP056 T02390122

27 de maio de 2024

Hora Código Clima Temp. Visibilidade Tecto Vento METAR/SPECI
19:54
V
26 °C 10 mi 7.000 ft 260° 260° 11 kt METAR KBOS 282354Z 26011KT 10SM BKN070 BKN250 26/12 A2966 RMK AO2 SLP042 T02560122 10289 20256 53017

28 de maio de 2024

Hora Código Clima Temp. Visibilidade Tecto Vento METAR/SPECI
18:54
V
27 °C 10 mi - 260° 260° 14 - 20 kt METAR KBOS 282254Z 26014G20KT 10SM SCT065 SCT250 27/12 A2964 RMK AO2 SLP035 T02670122
17:54
V
27 °C 10 mi - 260° 260° 12 kt METAR KBOS 282154Z 26012KT 10SM SCT070 SCT250 27/14 A2962 RMK AO2 SLP030 T02720139
16:54
V
28 °C 10 mi 5.500 ft 270° 270° 12 - 18 kt METAR KBOS 282054Z 27012G18KT 10SM BKN055 BKN250 28/15 A2961 RMK AO2 SLP025 T02780150 56011
15:54
V
28 °C 10 mi - 250° 250° 12 kt METAR KBOS 281954Z 25012KT 10SM SCT055 SCT250 28/15 A2961 RMK AO2 SLP026 T02830150
13:54
V
27 °C 10 mi 4.500 ft 230° 230° 15 - 25 kt METAR KBOS 281754Z 23015G25KT 10SM FEW033 BKN045 27/17 A2964 RMK AO2 PK WND 23028/1725 SLP036 T02670167 10272 20211 58003
12:54
V
27 °C 10 mi - 220° 220° 17 - 23 kt METAR KBOS 281654Z 22017G23KT 10SM FEW032 SCT043 27/18 A2965 RMK AO2 SLP040 T02670183
11:54
V
26 °C 10 mi - 220° 220° 13 - 21 kt METAR KBOS 281554Z 22013G21KT 10SM FEW030 SCT042 26/18 A2964 RMK AO2 SLP037 T02610183
10:54
V
24 °C 10 mi - 230° 230° 12 - 17 kt METAR KBOS 281454Z 23012G17KT 10SM SCT026 24/19 A2965 RMK AO2 SLP039 T02440189 58005
09:54
V
23 °C 10 mi - 230° 230° 10 kt METAR KBOS 281354Z 23010KT 10SM SCT020 23/18 A2965 RMK AO2 SLP041 T02330183
09:21
V
22 °C 10 mi - 250° 250° 9 - 16 kt METAR KBOS 281321Z 25009G16KT 10SM SCT017 22/18 A2966 RMK AO2 T02220183
08:54
M
22 °C 10 mi 1.500 ft 250° 250° 12 - 20 kt METAR KBOS 281254Z 25012G20KT 10SM BKN015 22/18 A2967 RMK AO2 SLP046 T02170183
07:52
M
21 °C 10 mi 1.000 ft 250° 250° 12 - 22 kt METAR KBOS 281152Z 25012G22KT 10SM BKN010 21/19 A2966 RMK AO2 $
06:54
I
20 °C 10 mi 800 ft 240° 240° 8 - 19 kt METAR KBOS 281054Z 24008G19KT 10SM BKN008 BKN018 20/19 A2966 RMK AO2 SLP044 T02000189 $
06:07
I
20 °C 10 mi 800 ft 220° 220° 10 kt METAR KBOS 281007Z 22010KT 10SM FEW005 OVC008 20/19 A2967 RMK AO2 T02000189 $
05:54
M
19 °C 10 mi 1.000 ft 210° 210° 10 kt METAR KBOS 280954Z 21010KT 10SM SCT006 OVC010 19/19 A2967 RMK AO2 SLP047 T01940189 $
04:54
I
19 °C 10 mi 600 ft 190° 190° 7 kt METAR KBOS 280854Z 19007KT 10SM BKN006 OVC013 19/19 A2967 RMK AO2 SLP047 60005 T01890189 55001 $
03:52
I
19 °C 10 mi 900 ft 200° 200° 8 kt METAR KBOS 280752Z 20008KT 10SM OVC009 19/18 A2967 RMK AO2 $
02:54
M
19 °C 10 mi 1.100 ft 180° 180° 9 kt METAR KBOS 280654Z 18009KT 10SM OVC011 19/18 A2967 RMK AO2 RAE25 SLP048 P0005 T01890183 $
02:13
M
19 °C 7 mi 1.400 ft 190° 190° 8 kt METAR KBOS 280613Z 19008KT 7SM -RA FEW005 SCT009 BKN014 OVC130 19/19 A2969 RMK AO2 P0005 T01890189 $
01:54
I
19 °C 3 mi 900 ft 190° 190° 11 kt METAR KBOS 280554Z 19011KT 3SM +RA BR FEW005 BKN009 OVC045 19/18 A2970 RMK AO2 VIS 2 E SLP056 P0009 60034 T01890183 10206 20189 58022 $
00:54
I
19 °C 10 mi 800 ft 180° 180° 8 kt METAR KBOS 280454Z 18008KT 10SM -RA FEW005 OVC008 19/18 A2972 RMK AO2 RAE15B34 SLP065 P0000 T01890183 402330150 $
00:20
I
19 °C 10 mi 900 ft 190° 190° 13 - 22 kt METAR KBOS 280420Z 19013G22KT 10SM BKN009 OVC019 19/18 A2975 RMK AO2 RAE15 P0000 T01940183 $

27 de maio de 2024

Hora Código Clima Temp. Visibilidade Tecto Vento METAR/SPECI
23:54
M
19 °C 7 mi 2.100 ft 180° 180° 12 kt METAR KBOS 280354Z 18012KT 7SM -RA SCT009 BKN021 OVC070 19/19 A2975 RMK AO2 SLP074 P0025 T01940189 $
23:40
I
19 °C 4 mi 900 ft 170° 170° 12 kt METAR KBOS 280340Z 17012KT 4SM RA BR BKN009 OVC038 19/19 A2976 RMK AO2 P0023 T01940189 $
23:05
I
19 °C 2½ mi 1.100 ft 170° 170° 14 kt METAR KBOS 280305Z 17014KT 2 1/2SM +RA BR FEW008 BKN011 OVC043 19/19 A2976 RMK AO2 P0001 T01940189 $
22:54
M
20 °C 10 mi 1.100 ft 170° 170° 15 - 23 kt METAR KBOS 280254Z 17015G23KT 10SM -RA FEW008 OVC011 20/19 A2976 RMK AO2 RAB48 SLP078 P0000 60000 T02000189 58011 $
21:54
M
20 °C 10 mi 1.100 ft 160° 160° 12 kt METAR KBOS 280154Z 16012KT 10SM FEW008 OVC011 20/18 A2979 RMK AO2 SLP086 T02000183 $
21:25
M
20 °C 10 mi 1.100 ft 150° 150° 10 kt METAR KBOS 280125Z 15010KT 10SM FEW009 BKN011 OVC130 20/18 A2978 RMK AO2 T02000183 $
20:54
M
20 °C 10 mi 1.300 ft 170° 170° 13 kt METAR KBOS 280054Z 17013KT 10SM BKN013 OVC130 20/18 A2979 RMK AO2 SLP086 T02000183 $
18:54
M
21 °C 7 mi 1.800 ft 160° 160° 16 - 23 kt METAR KBOS 272254Z 16016G23KT 7SM BKN018 OVC028 21/19 A2983 RMK AO2 RAB38E51 SLP100 P0001 T02110189 $
17:54
M
22 °C 10 mi 2.300 ft 170° 170° 15 kt METAR KBOS 272154Z 17015KT 10SM BKN023 OVC100 22/18 A2984 RMK AO2 SLP105 T02220183 $
17:23
M
23 °C 10 mi 2.300 ft 170° 170° 13 kt METAR KBOS 272123Z 17013KT 10SM BKN023 BKN060 OVC200 23/19 A2984 RMK AO2 T02330189 $
16:54
V
23 °C 10 mi 5.500 ft 180° 180° 16 kt METAR KBOS 272054Z 18016KT 10SM SCT022 BKN055 BKN200 23/18 A2986 RMK AO2 SLP110 T02280183 56029 $
15:54
V
22 °C 10 mi 6.000 ft 160° 160° 10 - 18 kt METAR KBOS 271954Z 16010G18KT 10SM SCT029 BKN060 OVC200 22/18 A2988 RMK AO2 SLP116 T02220178 $
14:54
V
19 °C 7 mi 3.500 ft Var Var 6 kt METAR KBOS 271854Z VRB06KT 7SM FEW003 BKN035 BKN200 19/17 A2990 RMK AO2 SLP126 T01940167 $
14:27
M
18 °C 6 mi 2.800 ft 070° 070° 7 kt METAR KBOS 271827Z 07007KT 6SM BR SCT003 BKN028 BKN200 18/17 A2992 RMK AO2 T01780167 $
13:54
L
17 °C ¾ mi 300 ft 060° 060° 7 kt METAR KBOS 271754Z 06007KT 3/4SM R04R/P6000FT BR BKN003 OVC025 17/16 A2994 RMK AO2 SFC VIS 2 RAE27 SLP139 P0000 60000 T01720161 10172 20150 58022 $
13:25
L
16 °C ¾ mi 200 ft 060° 060° 7 kt METAR KBOS 271725Z 06007KT 3/4SM R04R/P6000FT -RA BR BKN002 OVC025 16/16 A2996 RMK AO2 SFC VIS 3 P0000 T01610156 $
12:54
L
16 °C ¼ mi 200 ft 050° 050° 8 kt METAR KBOS 271654Z 05008KT 1/4SM R04R/1400V3000FT -RA BR OVC002 16/16 A2997 RMK AO2 SFC VIS 3/4 RAB43 SLP148 P0000 T01610156 $
11:54
L
16 °C ¼ mi 200 ft 050° 050° 10 kt METAR KBOS 271554Z 05010KT 1/4SM R04R/1800V3000FT FG VV002 16/16 A2998 RMK AO2 SFC VIS 1/2 SLP152 T01560156 $
10:54
L
16 °C ¼ mi 200 ft 030° 030° 8 kt METAR KBOS 271454Z 03008KT 1/4SM R04R/2200V5500FT FG OVC002 16/16 A3001 RMK AO2 SFC VIS 1/2 SLP161 T01560156 55003 $
09:54
L
15 °C ¼ mi 200 ft 060° 060° 10 kt METAR KBOS 271354Z 06010KT 1/4SM R04R/2000V2600FT FG VV002 15/15 A3000 RMK AO2 SFC VIS 1/2 SLP158 T01500150 $
09:38
L
15 °C ¼ mi 200 ft 060° 060° 10 kt METAR KBOS 271338Z 06010KT 1/4SM R04R/1400V2000FT FG VV002 15/15 A3001 RMK AO2 SFC VIS 1/2 T01500150 $
08:54
L
15 °C ¼ mi 200 ft 050° 050° 8 kt METAR KBOS 271254Z 05008KT 1/4SM R04R/3000V5000FT FG OVC002 15/15 A3002 RMK AO2 SFC VIS 1/2 SLP164 T01500150 $
07:51
L
15 °C ¼ mi 200 ft 050° 050° 10 kt METAR KBOS 271151Z 05010KT 1/4SM R04R/1600V2200FT FG VV002 15/14 A3002 RMK AO2 $
06:54
L
15 °C ¼ mi 200 ft 050° 050° 9 kt METAR KBOS 271054Z 05009KT 1/4SM R04R/3500VP6000FT FG OVC002 15/15 A3002 RMK AO2 SFC VIS 1/2 RAB0955E25 SLP165 P0000 T01500150 $
05:54
L
15 °C ¼ mi 200 ft 040° 040° 6 kt METAR KBOS 270954Z 04006KT 1/4SM R04R/3000VP6000FT FG VV002 15/15 A3002 RMK AO2 SFC VIS 1/2 SLP165 T01500150 $
05:20
L
15 °C 1½ mi 400 ft 080° 080° 9 kt METAR KBOS 270920Z 08009KT 1 1/2SM R04R/5500VP6000FT BR OVC004 15/15 A3000 RMK AO2 T01500150 $
04:54
L
16 °C 2 mi 200 ft 090° 090° 5 kt METAR KBOS 270854Z 09005KT 2SM BR OVC002 16/15 A3000 RMK AO2 SLP159 T01560150 51001
03:54
L
15 °C ½ mi 200 ft 060° 060° 8 kt METAR KBOS 270754Z 06008KT 1/2SM R04R/4000VP6000FT FG VV002 15/15 A3000 RMK AO2 SLP158 T01500150
03:12
L
16 °C ¾ mi 200 ft 070° 070° 11 kt METAR KBOS 270712Z 07011KT 3/4SM R04R/P6000FT BR OVC002 16/15 A3001 RMK AO2 T01560150
02:54
L
16 °C 1½ mi 400 ft 050° 050° 8 kt METAR KBOS 270654Z 05008KT 1 1/2SM BR BKN004 OVC015 16/16 A3000 RMK AO2 SLP160 T01610156
02:01
L
17 °C 10 mi 400 ft 050° 050° 8 kt METAR KBOS 270601Z 05008KT 10SM OVC004 17/16 A3000 RMK AO2 T01670156
01:54
M
17 °C 10 mi 1.600 ft 040° 040° 7 kt METAR KBOS 270554Z 04007KT 10SM OVC016 17/16 A3000 RMK AO2 SLP158 T01670156 10183 20167 53000
Relatar uma mudança